sensor_id;sensor_type;location;lat;lon;timestamp;P1;durP1;ratioP1;P2;durP2;ratioP2
2213;SDS011;1113;42.018;23.986;2023-04-24T00:01:05;30.38;;;21.25;;
2213;SDS011;1113;42.018;23.986;2023-04-24T00:03:32;36.42;;;24.13;;
2213;SDS011;1113;42.018;23.986;2023-04-24T00:05:59;33.17;;;26.13;;
2213;SDS011;1113;42.018;23.986;2023-04-24T00:08:26;33.20;;;24.95;;
2213;SDS011;1113;42.018;23.986;2023-04-24T00:10:52;28.52;;;22.08;;
2213;SDS011;1113;42.018;23.986;2023-04-24T00:13:19;28.38;;;20.90;;
2213;SDS011;1113;42.018;23.986;2023-04-24T00:15:47;32.30;;;21.40;;
2213;SDS011;1113;42.018;23.986;2023-04-24T00:18:13;28.35;;;21.60;;
2213;SDS011;1113;42.018;23.986;2023-04-24T00:20:40;34.67;;;23.33;;
2213;SDS011;1113;42.018;23.986;2023-04-24T00:23:06;31.83;;;22.13;;
2213;SDS011;1113;42.018;23.986;2023-04-24T00:25:33;27.98;;;21.10;;
2213;SDS011;1113;42.018;23.986;2023-04-24T00:27:59;32.35;;;21.23;;
2213;SDS011;1113;42.018;23.986;2023-04-24T00:30:26;26.95;;;20.55;;
2213;SDS011;1113;42.018;23.986;2023-04-24T00:32:54;29.17;;;22.55;;
2213;SDS011;1113;42.018;23.986;2023-04-24T00:35:20;26.10;;;20.05;;
2213;SDS011;1113;42.018;23.986;2023-04-24T00:37:48;28.38;;;22.25;;
2213;SDS011;1113;42.018;23.986;2023-04-24T00:40:14;28.33;;;22.05;;
2213;SDS011;1113;42.018;23.986;2023-04-24T00:42:41;28.20;;;21.20;;
2213;SDS011;1113;42.018;23.986;2023-04-24T00:45:08;28.42;;;21.20;;
2213;SDS011;1113;42.018;23.986;2023-04-24T00:47:34;24.92;;;21.45;;
2213;SDS011;1113;42.018;23.986;2023-04-24T00:50:03;21.50;;;18.73;;
2213;SDS011;1113;42.018;23.986;2023-04-24T00:52:29;26.77;;;20.65;;
2213;SDS011;1113;42.018;23.986;2023-04-24T00:54:57;24.08;;;20.27;;
2213;SDS011;1113;42.018;23.986;2023-04-24T00:57:23;29.25;;;21.60;;
2213;SDS011;1113;42.018;23.986;2023-04-24T00:59:50;27.85;;;20.67;;
2213;SDS011;1113;42.018;23.986;2023-04-24T01:02:18;23.30;;;20.20;;
2213;SDS011;1113;42.018;23.986;2023-04-24T01:04:45;24.70;;;19.08;;
2213;SDS011;1113;42.018;23.986;2023-04-24T01:07:13;24.33;;;19.33;;
2213;SDS011;1113;42.018;23.986;2023-04-24T01:09:40;26.48;;;19.02;;
2213;SDS011;1113;42.018;23.986;2023-04-24T01:12:07;23.85;;;18.92;;
2213;SDS011;1113;42.018;23.986;2023-04-24T01:14:33;24.65;;;18.92;;
2213;SDS011;1113;42.018;23.986;2023-04-24T01:17:00;25.77;;;20.50;;
2213;SDS011;1113;42.018;23.986;2023-04-24T01:19:26;24.65;;;19.38;;
2213;SDS011;1113;42.018;23.986;2023-04-24T01:21:53;25.83;;;19.27;;
2213;SDS011;1113;42.018;23.986;2023-04-24T01:24:22;25.30;;;19.35;;
2213;SDS011;1113;42.018;23.986;2023-04-24T01:26:48;28.23;;;21.70;;
2213;SDS011;1113;42.018;23.986;2023-04-24T01:29:15;27.17;;;21.20;;
2213;SDS011;1113;42.018;23.986;2023-04-24T01:31:41;27.35;;;19.90;;
2213;SDS011;1113;42.018;23.986;2023-04-24T01:34:08;30.73;;;22.05;;
2213;SDS011;1113;42.018;23.986;2023-04-24T01:36:35;28.60;;;22.95;;
2213;SDS011;1113;42.018;23.986;2023-04-24T01:39:02;27.83;;;22.10;;
2213;SDS011;1113;42.018;23.986;2023-04-24T01:41:30;28.80;;;20.25;;
2213;SDS011;1113;42.018;23.986;2023-04-24T01:43:57;24.00;;;19.70;;
2213;SDS011;1113;42.018;23.986;2023-04-24T01:46:24;25.35;;;20.00;;
2213;SDS011;1113;42.018;23.986;2023-04-24T01:48:50;27.13;;;21.92;;
2213;SDS011;1113;42.018;23.986;2023-04-24T01:51:17;28.30;;;21.15;;
2213;SDS011;1113;42.018;23.986;2023-04-24T01:53:44;27.25;;;21.13;;
2213;SDS011;1113;42.018;23.986;2023-04-24T01:56:11;25.50;;;19.77;;
2213;SDS011;1113;42.018;23.986;2023-04-24T01:58:39;48.65;;;38.95;;
2213;SDS011;1113;42.018;23.986;2023-04-24T02:01:06;44.03;;;35.72;;
2213;SDS011;1113;42.018;23.986;2023-04-24T02:03:32;30.55;;;25.88;;
2213;SDS011;1113;42.018;23.986;2023-04-24T02:05:59;29.27;;;22.08;;
2213;SDS011;1113;42.018;23.986;2023-04-24T02:08:25;27.48;;;21.90;;
2213;SDS011;1113;42.018;23.986;2023-04-24T02:10:52;30.33;;;22.67;;
2213;SDS011;1113;42.018;23.986;2023-04-24T02:13:19;39.05;;;23.45;;
2213;SDS011;1113;42.018;23.986;2023-04-24T02:15:46;32.15;;;25.27;;
2213;SDS011;1113;42.018;23.986;2023-04-24T02:18:13;35.10;;;24.75;;
2213;SDS011;1113;42.018;23.986;2023-04-24T02:20:40;27.63;;;22.02;;
2213;SDS011;1113;42.018;23.986;2023-04-24T02:23:07;33.50;;;27.95;;
2213;SDS011;1113;42.018;23.986;2023-04-24T02:25:33;33.15;;;26.95;;
2213;SDS011;1113;42.018;23.986;2023-04-24T02:28:00;30.48;;;24.35;;
2213;SDS011;1113;42.018;23.986;2023-04-24T02:30:27;31.20;;;24.27;;
2213;SDS011;1113;42.018;23.986;2023-04-24T02:32:55;29.30;;;22.23;;
2213;SDS011;1113;42.018;23.986;2023-04-24T02:35:21;27.95;;;21.50;;
2213;SDS011;1113;42.018;23.986;2023-04-24T02:37:48;26.55;;;21.10;;
2213;SDS011;1113;42.018;23.986;2023-04-24T02:40:14;30.00;;;22.02;;
2213;SDS011;1113;42.018;23.986;2023-04-24T02:42:41;27.77;;;22.05;;
2213;SDS011;1113;42.018;23.986;2023-04-24T02:45:07;28.92;;;20.38;;
2213;SDS011;1113;42.018;23.986;2023-04-24T02:47:34;36.80;;;32.00;;
2213;SDS011;1113;42.018;23.986;2023-04-24T02:50:02;30.73;;;24.65;;
2213;SDS011;1113;42.018;23.986;2023-04-24T02:52:29;25.13;;;20.08;;
2213;SDS011;1113;42.018;23.986;2023-04-24T02:54:55;22.33;;;18.10;;
2213;SDS011;1113;42.018;23.986;2023-04-24T02:57:22;22.05;;;17.25;;
2213;SDS011;1113;42.018;23.986;2023-04-24T02:59:48;25.85;;;20.33;;
2213;SDS011;1113;42.018;23.986;2023-04-24T03:02:15;26.38;;;20.48;;
2213;SDS011;1113;42.018;23.986;2023-04-24T03:04:41;28.23;;;22.25;;
2213;SDS011;1113;42.018;23.986;2023-04-24T03:07:10;29.70;;;23.85;;
2213;SDS011;1113;42.018;23.986;2023-04-24T03:09:37;26.48;;;21.95;;
2213;SDS011;1113;42.018;23.986;2023-04-24T03:12:03;26.83;;;21.38;;
2213;SDS011;1113;42.018;23.986;2023-04-24T03:14:30;23.52;;;19.48;;
2213;SDS011;1113;42.018;23.986;2023-04-24T03:16:57;23.10;;;18.95;;
2213;SDS011;1113;42.018;23.986;2023-04-24T03:19:23;23.92;;;18.48;;
2213;SDS011;1113;42.018;23.986;2023-04-24T03:21:50;23.48;;;17.85;;
2213;SDS011;1113;42.018;23.986;2023-04-24T03:24:18;23.95;;;19.00;;
2213;SDS011;1113;42.018;23.986;2023-04-24T03:26:45;31.08;;;23.23;;
2213;SDS011;1113;42.018;23.986;2023-04-24T03:29:12;31.27;;;23.00;;
2213;SDS011;1113;42.018;23.986;2023-04-24T03:31:38;26.48;;;21.75;;
2213;SDS011;1113;42.018;23.986;2023-04-24T03:34:05;23.05;;;19.80;;
2213;SDS011;1113;42.018;23.986;2023-04-24T03:36:31;23.27;;;19.67;;
2213;SDS011;1113;42.018;23.986;2023-04-24T03:38:58;26.70;;;20.13;;
2213;SDS011;1113;42.018;23.986;2023-04-24T03:41:26;30.27;;;21.70;;
2213;SDS011;1113;42.018;23.986;2023-04-24T03:43:52;28.17;;;22.20;;
2213;SDS011;1113;42.018;23.986;2023-04-24T03:46:19;27.65;;;21.85;;
2213;SDS011;1113;42.018;23.986;2023-04-24T03:48:45;31.60;;;25.83;;
2213;SDS011;1113;42.018;23.986;2023-04-24T03:51:12;31.50;;;23.92;;
2213;SDS011;1113;42.018;23.986;2023-04-24T03:53:38;30.10;;;24.23;;
2213;SDS011;1113;42.018;23.986;2023-04-24T03:56:05;31.17;;;23.45;;
2213;SDS011;1113;42.018;23.986;2023-04-24T03:58:33;27.92;;;22.20;;
2213;SDS011;1113;42.018;23.986;2023-04-24T04:00:59;27.48;;;22.75;;
2213;SDS011;1113;42.018;23.986;2023-04-24T04:03:26;26.45;;;21.75;;
2213;SDS011;1113;42.018;23.986;2023-04-24T04:05:52;28.77;;;23.40;;
2213;SDS011;1113;42.018;23.986;2023-04-24T04:08:19;31.90;;;25.45;;
2213;SDS011;1113;42.018;23.986;2023-04-24T04:10:52;31.13;;;26.60;;
2213;SDS011;1113;42.018;23.986;2023-04-24T04:13:18;33.10;;;25.35;;
2213;SDS011;1113;42.018;23.986;2023-04-24T04:15:46;34.92;;;26.05;;
2213;SDS011;1113;42.018;23.986;2023-04-24T04:18:13;33.78;;;25.90;;
2213;SDS011;1113;42.018;23.986;2023-04-24T04:20:39;31.42;;;24.95;;
2213;SDS011;1113;42.018;23.986;2023-04-24T04:23:12;32.78;;;23.60;;
2213;SDS011;1113;42.018;23.986;2023-04-24T04:25:42;33.40;;;24.20;;
2213;SDS011;1113;42.018;23.986;2023-04-24T04:28:09;33.70;;;25.63;;
2213;SDS011;1113;42.018;23.986;2023-04-24T04:30:35;35.20;;;28.05;;
2213;SDS011;1113;42.018;23.986;2023-04-24T04:33:04;32.22;;;25.25;;
2213;SDS011;1113;42.018;23.986;2023-04-24T04:35:31;34.38;;;26.67;;
2213;SDS011;1113;42.018;23.986;2023-04-24T04:37:57;29.88;;;24.42;;
2213;SDS011;1113;42.018;23.986;2023-04-24T04:40:24;36.78;;;27.33;;
2213;SDS011;1113;42.018;23.986;2023-04-24T04:42:51;32.03;;;24.30;;
2213;SDS011;1113;42.018;23.986;2023-04-24T04:45:19;32.42;;;23.70;;
2213;SDS011;1113;42.018;23.986;2023-04-24T04:47:45;35.15;;;25.25;;
2213;SDS011;1113;42.018;23.986;2023-04-24T04:50:13;30.45;;;26.13;;
2213;SDS011;1113;42.018;23.986;2023-04-24T04:52:41;35.38;;;27.02;;
2213;SDS011;1113;42.018;23.986;2023-04-24T04:55:08;33.90;;;27.30;;
2213;SDS011;1113;42.018;23.986;2023-04-24T04:57:34;39.47;;;32.78;;
2213;SDS011;1113;42.018;23.986;2023-04-24T05:00:01;42.37;;;35.47;;
2213;SDS011;1113;42.018;23.986;2023-04-24T05:02:29;43.85;;;37.03;;
2213;SDS011;1113;42.018;23.986;2023-04-24T05:04:56;42.75;;;37.38;;
2213;SDS011;1113;42.018;23.986;2023-04-24T05:07:24;40.67;;;35.73;;
2213;SDS011;1113;42.018;23.986;2023-04-24T05:09:50;54.60;;;40.20;;
2213;SDS011;1113;42.018;23.986;2023-04-24T05:12:17;52.57;;;41.77;;
2213;SDS011;1113;42.018;23.986;2023-04-24T05:14:43;48.03;;;40.80;;
2213;SDS011;1113;42.018;23.986;2023-04-24T05:17:10;45.33;;;38.27;;
2213;SDS011;1113;42.018;23.986;2023-04-24T05:19:37;43.07;;;36.27;;
2213;SDS011;1113;42.018;23.986;2023-04-24T05:22:03;36.93;;;32.97;;
2213;SDS011;1113;42.018;23.986;2023-04-24T05:24:33;42.83;;;35.23;;
2213;SDS011;1113;42.018;23.986;2023-04-24T05:27:00;41.10;;;34.20;;
2213;SDS011;1113;42.018;23.986;2023-04-24T05:29:27;42.07;;;33.17;;
2213;SDS011;1113;42.018;23.986;2023-04-24T05:31:55;43.17;;;36.67;;
2213;SDS011;1113;42.018;23.986;2023-04-24T05:34:22;52.60;;;40.90;;
2213;SDS011;1113;42.018;23.986;2023-04-24T05:36:48;51.40;;;41.87;;
2213;SDS011;1113;42.018;23.986;2023-04-24T05:39:15;46.40;;;36.57;;
2213;SDS011;1113;42.018;23.986;2023-04-24T05:41:43;37.90;;;32.70;;
2213;SDS011;1113;42.018;23.986;2023-04-24T05:44:10;36.57;;;32.57;;
2213;SDS011;1113;42.018;23.986;2023-04-24T05:46:36;33.73;;;27.43;;
2213;SDS011;1113;42.018;23.986;2023-04-24T05:49:03;31.50;;;26.30;;
2213;SDS011;1113;42.018;23.986;2023-04-24T05:51:29;30.00;;;26.73;;
2213;SDS011;1113;42.018;23.986;2023-04-24T05:53:56;34.70;;;28.10;;
2213;SDS011;1113;42.018;23.986;2023-04-24T05:56:23;37.93;;;31.07;;
2213;SDS011;1113;42.018;23.986;2023-04-24T05:58:51;38.13;;;30.50;;
2213;SDS011;1113;42.018;23.986;2023-04-24T06:01:18;38.33;;;33.17;;
2213;SDS011;1113;42.018;23.986;2023-04-24T06:03:44;41.57;;;35.03;;
2213;SDS011;1113;42.018;23.986;2023-04-24T06:06:11;41.10;;;34.33;;
2213;SDS011;1113;42.018;23.986;2023-04-24T06:08:37;43.87;;;37.03;;
2213;SDS011;1113;42.018;23.986;2023-04-24T06:11:04;41.50;;;35.53;;
2213;SDS011;1113;42.018;23.986;2023-04-24T06:13:30;42.27;;;35.10;;
2213;SDS011;1113;42.018;23.986;2023-04-24T06:15:58;47.60;;;36.33;;
2213;SDS011;1113;42.018;23.986;2023-04-24T06:18:25;38.27;;;32.37;;
2213;SDS011;1113;42.018;23.986;2023-04-24T06:20:51;41.70;;;33.90;;
2213;SDS011;1113;42.018;23.986;2023-04-24T06:23:18;40.90;;;33.90;;
2213;SDS011;1113;42.018;23.986;2023-04-24T06:25:44;38.80;;;34.60;;
2213;SDS011;1113;42.018;23.986;2023-04-24T06:28:12;42.53;;;37.90;;
2213;SDS011;1113;42.018;23.986;2023-04-24T06:30:38;39.23;;;33.70;;
2213;SDS011;1113;42.018;23.986;2023-04-24T06:33:07;33.60;;;28.60;;
2213;SDS011;1113;42.018;23.986;2023-04-24T06:35:34;30.90;;;25.10;;
2213;SDS011;1113;42.018;23.986;2023-04-24T06:38:00;38.23;;;33.60;;
2213;SDS011;1113;42.018;23.986;2023-04-24T06:40:29;35.13;;;31.40;;
2213;SDS011;1113;42.018;23.986;2023-04-24T06:42:56;30.50;;;27.20;;
2213;SDS011;1113;42.018;23.986;2023-04-24T06:45:23;33.87;;;29.53;;
2213;SDS011;1113;42.018;23.986;2023-04-24T06:47:49;39.60;;;30.70;;
2213;SDS011;1113;42.018;23.986;2023-04-24T06:50:17;31.43;;;24.70;;
2213;SDS011;1113;42.018;23.986;2023-04-24T06:52:44;30.53;;;27.20;;
2213;SDS011;1113;42.018;23.986;2023-04-24T06:55:10;27.90;;;24.87;;
2213;SDS011;1113;42.018;23.986;2023-04-24T06:57:37;33.17;;;25.63;;
2213;SDS011;1113;42.018;23.986;2023-04-24T07:00:04;19.37;;;16.93;;
2213;SDS011;1113;42.018;23.986;2023-04-24T07:02:31;18.23;;;15.23;;
2213;SDS011;1113;42.018;23.986;2023-04-24T07:04:58;15.60;;;13.70;;
2213;SDS011;1113;42.018;23.986;2023-04-24T07:07:26;15.53;;;13.10;;
2213;SDS011;1113;42.018;23.986;2023-04-24T07:09:52;15.73;;;12.80;;
2213;SDS011;1113;42.018;23.986;2023-04-24T07:12:19;16.40;;;14.00;;
2213;SDS011;1113;42.018;23.986;2023-04-24T07:14:46;14.20;;;12.70;;
2213;SDS011;1113;42.018;23.986;2023-04-24T07:17:13;13.70;;;11.77;;
2213;SDS011;1113;42.018;23.986;2023-04-24T07:19:40;14.00;;;11.50;;
2213;SDS011;1113;42.018;23.986;2023-04-24T07:22:06;14.43;;;11.37;;
2213;SDS011;1113;42.018;23.986;2023-04-24T07:24:34;13.63;;;12.00;;
2213;SDS011;1113;42.018;23.986;2023-04-24T07:27:00;13.90;;;12.20;;
2213;SDS011;1113;42.018;23.986;2023-04-24T07:29:27;13.03;;;11.73;;
2213;SDS011;1113;42.018;23.986;2023-04-24T07:31:53;12.30;;;10.80;;
2213;SDS011;1113;42.018;23.986;2023-04-24T07:34:21;12.73;;;11.43;;
2213;SDS011;1113;42.018;23.986;2023-04-24T07:36:48;12.60;;;11.40;;
2213;SDS011;1113;42.018;23.986;2023-04-24T07:39:14;13.57;;;12.27;;
2213;SDS011;1113;42.018;23.986;2023-04-24T07:41:42;13.17;;;11.87;;
2213;SDS011;1113;42.018;23.986;2023-04-24T07:44:09;13.23;;;11.83;;
2213;SDS011;1113;42.018;23.986;2023-04-24T07:46:35;12.53;;;11.30;;
2213;SDS011;1113;42.018;23.986;2023-04-24T07:49:05;13.07;;;10.77;;
2213;SDS011;1113;42.018;23.986;2023-04-24T07:51:31;11.20;;;10.00;;
2213;SDS011;1113;42.018;23.986;2023-04-24T07:54:03;14.90;;;11.33;;
2213;SDS011;1113;42.018;23.986;2023-04-24T07:56:29;12.30;;;11.10;;
2213;SDS011;1113;42.018;23.986;2023-04-24T07:58:57;13.27;;;11.53;;
2213;SDS011;1113;42.018;23.986;2023-04-24T08:01:24;12.67;;;10.07;;
2213;SDS011;1113;42.018;23.986;2023-04-24T08:03:50;12.30;;;10.30;;
2213;SDS011;1113;42.018;23.986;2023-04-24T08:06:17;12.23;;;11.00;;
2213;SDS011;1113;42.018;23.986;2023-04-24T08:08:44;13.43;;;9.67;;
2213;SDS011;1113;42.018;23.986;2023-04-24T08:11:10;11.17;;;10.07;;
2213;SDS011;1113;42.018;23.986;2023-04-24T08:13:37;11.60;;;9.87;;
2213;SDS011;1113;42.018;23.986;2023-04-24T08:16:05;13.07;;;10.93;;
2213;SDS011;1113;42.018;23.986;2023-04-24T08:18:31;10.90;;;9.40;;
2213;SDS011;1113;42.018;23.986;2023-04-24T08:20:58;10.80;;;9.70;;
2213;SDS011;1113;42.018;23.986;2023-04-24T08:23:26;11.90;;;10.53;;
2213;SDS011;1113;42.018;23.986;2023-04-24T08:25:53;10.50;;;9.50;;
2213;SDS011;1113;42.018;23.986;2023-04-24T08:28:20;12.83;;;11.00;;
2213;SDS011;1113;42.018;23.986;2023-04-24T08:30:47;13.10;;;11.70;;
2213;SDS011;1113;42.018;23.986;2023-04-24T08:33:14;11.17;;;10.07;;
2213;SDS011;1113;42.018;23.986;2023-04-24T08:35:41;14.37;;;11.33;;
2213;SDS011;1113;42.018;23.986;2023-04-24T08:38:07;16.40;;;11.00;;
2213;SDS011;1113;42.018;23.986;2023-04-24T08:40:34;10.70;;;9.60;;
2213;SDS011;1113;42.018;23.986;2023-04-24T08:43:01;11.30;;;10.20;;
2213;SDS011;1113;42.018;23.986;2023-04-24T08:45:27;10.80;;;9.70;;
2213;SDS011;1113;42.018;23.986;2023-04-24T08:47:54;10.27;;;9.27;;
2213;SDS011;1113;42.018;23.986;2023-04-24T08:50:22;12.07;;;10.87;;
2213;SDS011;1113;42.018;23.986;2023-04-24T08:52:49;11.30;;;10.10;;
2213;SDS011;1113;42.018;23.986;2023-04-24T08:55:18;11.47;;;10.27;;
2213;SDS011;1113;42.018;23.986;2023-04-24T08:57:45;10.67;;;9.07;;
2213;SDS011;1113;42.018;23.986;2023-04-24T09:00:14;10.40;;;9.40;;
2213;SDS011;1113;42.018;23.986;2023-04-24T09:02:41;11.23;;;10.00;;
2213;SDS011;1113;42.018;23.986;2023-04-24T09:05:09;11.43;;;10.23;;
2213;SDS011;1113;42.018;23.986;2023-04-24T09:07:37;9.40;;;8.40;;
2213;SDS011;1113;42.018;23.986;2023-04-24T09:10:06;12.23;;;9.13;;
2213;SDS011;1113;42.018;23.986;2023-04-24T09:12:33;9.80;;;8.80;;
2213;SDS011;1113;42.018;23.986;2023-04-24T09:15:00;9.43;;;8.53;;
2213;SDS011;1113;42.018;23.986;2023-04-24T09:17:28;9.70;;;8.80;;
2213;SDS011;1113;42.018;23.986;2023-04-24T09:19:55;18.23;;;10.80;;
2213;SDS011;1113;42.018;23.986;2023-04-24T09:22:22;11.70;;;10.50;;
2213;SDS011;1113;42.018;23.986;2023-04-24T09:24:50;9.63;;;8.47;;
2213;SDS011;1113;42.018;23.986;2023-04-24T09:27:25;10.00;;;8.43;;
2213;SDS011;1113;42.018;23.986;2023-04-24T09:29:54;15.07;;;10.27;;
2213;SDS011;1113;42.018;23.986;2023-04-24T09:32:21;15.10;;;9.77;;
2213;SDS011;1113;42.018;23.986;2023-04-24T09:35:04;12.57;;;9.73;;
2213;SDS011;1113;42.018;23.986;2023-04-24T09:37:34;10.67;;;9.67;;
2213;SDS011;1113;42.018;23.986;2023-04-24T09:40:09;14.83;;;9.40;;
2213;SDS011;1113;42.018;23.986;2023-04-24T09:42:36;13.17;;;10.83;;
2213;SDS011;1113;42.018;23.986;2023-04-24T09:45:03;11.03;;;8.77;;
2213;SDS011;1113;42.018;23.986;2023-04-24T09:47:35;11.37;;;8.13;;
2213;SDS011;1113;42.018;23.986;2023-04-24T09:50:13;9.20;;;8.17;;
2213;SDS011;1113;42.018;23.986;2023-04-24T09:52:40;9.53;;;8.30;;
2213;SDS011;1113;42.018;23.986;2023-04-24T09:55:11;9.33;;;8.43;;
2213;SDS011;1113;42.018;23.986;2023-04-24T09:57:46;20.10;;;11.10;;
2213;SDS011;1113;42.018;23.986;2023-04-24T10:00:13;9.87;;;8.70;;
2213;SDS011;1113;42.018;23.986;2023-04-24T10:02:43;14.93;;;9.40;;
2213;SDS011;1113;42.018;23.986;2023-04-24T10:05:11;13.20;;;9.10;;
2213;SDS011;1113;42.018;23.986;2023-04-24T10:07:37;12.80;;;8.00;;
2213;SDS011;1113;42.018;23.986;2023-04-24T10:10:04;9.47;;;8.47;;
2213;SDS011;1113;42.018;23.986;2023-04-24T10:12:33;9.70;;;8.10;;
2213;SDS011;1113;42.018;23.986;2023-04-24T10:15:01;9.40;;;7.30;;
2213;SDS011;1113;42.018;23.986;2023-04-24T10:17:30;10.47;;;8.67;;
2213;SDS011;1113;42.018;23.986;2023-04-24T10:19:57;13.83;;;8.20;;
2213;SDS011;1113;42.018;23.986;2023-04-24T10:22:24;9.93;;;9.03;;
2213;SDS011;1113;42.018;23.986;2023-04-24T10:24:52;10.70;;;9.60;;
2213;SDS011;1113;42.018;23.986;2023-04-24T10:27:18;11.63;;;9.77;;
2213;SDS011;1113;42.018;23.986;2023-04-24T10:29:48;11.23;;;8.03;;
2213;SDS011;1113;42.018;23.986;2023-04-24T10:32:15;9.70;;;8.70;;
2213;SDS011;1113;42.018;23.986;2023-04-24T10:34:41;12.47;;;10.20;;
2213;SDS011;1113;42.018;23.986;2023-04-24T10:37:08;10.87;;;9.63;;
2213;SDS011;1113;42.018;23.986;2023-04-24T10:39:34;12.10;;;10.80;;
2213;SDS011;1113;42.018;23.986;2023-04-24T10:42:02;13.07;;;10.47;;
2213;SDS011;1113;42.018;23.986;2023-04-24T10:44:39;12.23;;;10.20;;
2213;SDS011;1113;42.018;23.986;2023-04-24T10:47:07;12.93;;;9.53;;
2213;SDS011;1113;42.018;23.986;2023-04-24T10:49:39;10.27;;;8.50;;
2213;SDS011;1113;42.018;23.986;2023-04-24T10:52:05;13.63;;;8.53;;
2213;SDS011;1113;42.018;23.986;2023-04-24T10:54:34;8.87;;;7.40;;
2213;SDS011;1113;42.018;23.986;2023-04-24T10:59:47;9.33;;;7.27;;
2213;SDS011;1113;42.018;23.986;2023-04-24T11:02:15;10.80;;;6.37;;
2213;SDS011;1113;42.018;23.986;2023-04-24T11:04:42;8.67;;;6.67;;
2213;SDS011;1113;42.018;23.986;2023-04-24T11:07:11;7.03;;;6.10;;
2213;SDS011;1113;42.018;23.986;2023-04-24T11:09:41;6.90;;;6.30;;
2213;SDS011;1113;42.018;23.986;2023-04-24T11:12:09;7.83;;;6.97;;
2213;SDS011;1113;42.018;23.986;2023-04-24T11:17:30;8.03;;;7.10;;
2213;SDS011;1113;42.018;23.986;2023-04-24T11:20:00;7.90;;;6.80;;
2213;SDS011;1113;42.018;23.986;2023-04-24T11:22:29;9.40;;;7.70;;
2213;SDS011;1113;42.018;23.986;2023-04-24T11:24:59;9.20;;;7.30;;
2213;SDS011;1113;42.018;23.986;2023-04-24T11:27:29;8.17;;;7.37;;
2213;SDS011;1113;42.018;23.986;2023-04-24T11:29:58;9.77;;;7.80;;
2213;SDS011;1113;42.018;23.986;2023-04-24T11:32:26;9.47;;;8.60;;
2213;SDS011;1113;42.018;23.986;2023-04-24T11:34:55;8.57;;;7.27;;
2213;SDS011;1113;42.018;23.986;2023-04-24T11:37:22;9.00;;;7.30;;
2213;SDS011;1113;42.018;23.986;2023-04-24T11:39:50;10.00;;;8.40;;
2213;SDS011;1113;42.018;23.986;2023-04-24T11:42:16;10.67;;;8.50;;
2213;SDS011;1113;42.018;23.986;2023-04-24T11:44:44;10.60;;;7.40;;
2213;SDS011;1113;42.018;23.986;2023-04-24T11:47:12;9.43;;;8.40;;
2213;SDS011;1113;42.018;23.986;2023-04-24T11:49:39;9.40;;;8.50;;
2213;SDS011;1113;42.018;23.986;2023-04-24T11:52:07;11.73;;;7.80;;
2213;SDS011;1113;42.018;23.986;2023-04-24T11:54:33;9.83;;;8.03;;
2213;SDS011;1113;42.018;23.986;2023-04-24T11:57:03;9.97;;;7.90;;
2213;SDS011;1113;42.018;23.986;2023-04-24T11:59:30;8.00;;;6.87;;
2213;SDS011;1113;42.018;23.986;2023-04-24T12:01:56;8.17;;;7.20;;
2213;SDS011;1113;42.018;23.986;2023-04-24T12:04:23;9.57;;;7.33;;
2213;SDS011;1113;42.018;23.986;2023-04-24T12:06:58;7.93;;;6.67;;
2213;SDS011;1113;42.018;23.986;2023-04-24T12:09:26;11.27;;;7.93;;
2213;SDS011;1113;42.018;23.986;2023-04-24T12:11:53;9.40;;;8.00;;
2213;SDS011;1113;42.018;23.986;2023-04-24T12:14:22;7.03;;;6.20;;
2213;SDS011;1113;42.018;23.986;2023-04-24T12:16:48;9.90;;;7.00;;
2213;SDS011;1113;42.018;23.986;2023-04-24T12:19:17;8.70;;;6.00;;
2213;SDS011;1113;42.018;23.986;2023-04-24T12:21:45;8.93;;;6.70;;
2213;SDS011;1113;42.018;23.986;2023-04-24T12:24:54;8.00;;;7.20;;
2213;SDS011;1113;42.018;23.986;2023-04-24T12:27:22;6.53;;;5.10;;
2213;SDS011;1113;42.018;23.986;2023-04-24T12:29:52;9.13;;;6.20;;
2213;SDS011;1113;42.018;23.986;2023-04-24T12:32:19;7.33;;;6.30;;
2213;SDS011;1113;42.018;23.986;2023-04-24T12:34:45;6.83;;;6.13;;
2213;SDS011;1113;42.018;23.986;2023-04-24T12:37:12;8.00;;;6.00;;
2213;SDS011;1113;42.018;23.986;2023-04-24T12:39:42;11.13;;;7.10;;
2213;SDS011;1113;42.018;23.986;2023-04-24T12:42:11;10.40;;;7.80;;
2213;SDS011;1113;42.018;23.986;2023-04-24T12:44:37;8.53;;;6.83;;
2213;SDS011;1113;42.018;23.986;2023-04-24T12:47:04;7.73;;;6.93;;
2213;SDS011;1113;42.018;23.986;2023-04-24T12:49:30;8.40;;;7.40;;
2213;SDS011;1113;42.018;23.986;2023-04-24T12:51:57;7.87;;;7.10;;
2213;SDS011;1113;42.018;23.986;2023-04-24T12:54:23;10.40;;;8.00;;
2213;SDS011;1113;42.018;23.986;2023-04-24T12:56:52;8.70;;;7.37;;
2213;SDS011;1113;42.018;23.986;2023-04-24T12:59:21;10.83;;;7.30;;
2213;SDS011;1113;42.018;23.986;2023-04-24T13:01:48;11.83;;;9.17;;
2213;SDS011;1113;42.018;23.986;2023-04-24T13:04:14;12.60;;;10.67;;
2213;SDS011;1113;42.018;23.986;2023-04-24T13:06:42;9.90;;;8.40;;
2213;SDS011;1113;42.018;23.986;2023-04-24T13:09:08;9.43;;;8.33;;
2213;SDS011;1113;42.018;23.986;2023-04-24T13:11:35;16.87;;;8.50;;
2213;SDS011;1113;42.018;23.986;2023-04-24T13:14:03;11.07;;;9.97;;
2213;SDS011;1113;42.018;23.986;2023-04-24T13:16:29;14.80;;;10.87;;
2213;SDS011;1113;42.018;23.986;2023-04-24T13:18:56;12.87;;;11.07;;
2213;SDS011;1113;42.018;23.986;2023-04-24T13:21:22;12.83;;;10.17;;
2213;SDS011;1113;42.018;23.986;2023-04-24T13:23:49;13.77;;;12.20;;
2213;SDS011;1113;42.018;23.986;2023-04-24T13:26:16;12.90;;;11.60;;
2213;SDS011;1113;42.018;23.986;2023-04-24T13:28:43;13.63;;;10.63;;
2213;SDS011;1113;42.018;23.986;2023-04-24T13:31:11;10.60;;;9.00;;
2213;SDS011;1113;42.018;23.986;2023-04-24T13:33:38;11.13;;;8.93;;
2213;SDS011;1113;42.018;23.986;2023-04-24T13:36:05;9.40;;;8.27;;
2213;SDS011;1113;42.018;23.986;2023-04-24T13:38:31;9.93;;;8.03;;
2213;SDS011;1113;42.018;23.986;2023-04-24T13:40:58;10.33;;;9.03;;
2213;SDS011;1113;42.018;23.986;2023-04-24T13:43:24;10.10;;;7.70;;
2213;SDS011;1113;42.018;23.986;2023-04-24T13:45:51;10.93;;;8.30;;
2213;SDS011;1113;42.018;23.986;2023-04-24T13:48:19;11.10;;;9.33;;
2213;SDS011;1113;42.018;23.986;2023-04-24T13:50:46;11.27;;;8.63;;
2213;SDS011;1113;42.018;23.986;2023-04-24T13:53:14;9.20;;;7.83;;
2213;SDS011;1113;42.018;23.986;2023-04-24T13:55:41;13.00;;;9.60;;
2213;SDS011;1113;42.018;23.986;2023-04-24T13:58:07;8.80;;;7.60;;
2213;SDS011;1113;42.018;23.986;2023-04-24T14:00:34;7.37;;;6.67;;
2213;SDS011;1113;42.018;23.986;2023-04-24T14:03:00;8.03;;;6.70;;
2213;SDS011;1113;42.018;23.986;2023-04-24T14:05:30;6.80;;;6.10;;
2213;SDS011;1113;42.018;23.986;2023-04-24T14:07:57;9.40;;;6.83;;
2213;SDS011;1113;42.018;23.986;2023-04-24T14:10:23;7.63;;;6.30;;
2213;SDS011;1113;42.018;23.986;2023-04-24T14:12:50;10.50;;;6.67;;
2213;SDS011;1113;42.018;23.986;2023-04-24T14:15:17;8.50;;;6.53;;
2213;SDS011;1113;42.018;23.986;2023-04-24T14:17:44;9.47;;;6.90;;
2213;SDS011;1113;42.018;23.986;2023-04-24T14:20:11;23.87;;;9.17;;
2213;SDS011;1113;42.018;23.986;2023-04-24T14:22:39;7.37;;;6.30;;
2213;SDS011;1113;42.018;23.986;2023-04-24T14:25:06;9.17;;;7.80;;
2213;SDS011;1113;42.018;23.986;2023-04-24T14:27:33;7.93;;;6.87;;
2213;SDS011;1113;42.018;23.986;2023-04-24T14:29:59;12.80;;;7.63;;
2213;SDS011;1113;42.018;23.986;2023-04-24T14:32:26;9.40;;;8.10;;
2213;SDS011;1113;42.018;23.986;2023-04-24T14:34:53;8.83;;;7.30;;
2213;SDS011;1113;42.018;23.986;2023-04-24T14:37:19;9.30;;;7.60;;
2213;SDS011;1113;42.018;23.986;2023-04-24T14:39:47;7.60;;;6.47;;
2213;SDS011;1113;42.018;23.986;2023-04-24T14:42:14;10.93;;;8.00;;
2213;SDS011;1113;42.018;23.986;2023-04-24T14:44:41;13.63;;;7.73;;
2213;SDS011;1113;42.018;23.986;2023-04-24T14:47:08;9.93;;;6.67;;
2213;SDS011;1113;42.018;23.986;2023-04-24T14:49:34;6.93;;;6.17;;